createdAt,value
2017-05-25T00:00:48.011Z,7.57
2017-05-25T00:03:16.822Z,8.35
2017-05-25T00:05:45.636Z,9.57
2017-05-25T00:08:14.528Z,8.77
2017-05-25T00:10:43.354Z,7.63
2017-05-25T00:13:12.200Z,10.68
2017-05-25T00:15:41.049Z,10.58
2017-05-25T00:18:09.857Z,8.88
2017-05-25T00:20:38.735Z,8.78
2017-05-25T00:23:07.539Z,8.42
2017-05-25T00:25:36.374Z,9.18
2017-05-25T00:28:05.211Z,7.63
2017-05-25T00:30:34.052Z,7.90
2017-05-25T00:33:02.906Z,8.92
2017-05-25T00:35:31.711Z,8.77
2017-05-25T00:38:00.553Z,8.95
2017-05-25T00:40:29.380Z,9.93
2017-05-25T00:42:58.204Z,10.45
2017-05-25T00:45:27.014Z,8.38
2017-05-25T00:47:55.863Z,9.90
2017-05-25T00:50:24.681Z,8.67
2017-05-25T00:52:53.490Z,8.42
2017-05-25T00:55:22.355Z,8.85
2017-05-25T00:57:51.183Z,9.83
2017-05-25T01:00:19.991Z,9.28
2017-05-25T01:02:48.834Z,8.42
2017-05-25T01:05:17.656Z,9.02
2017-05-25T01:07:46.477Z,9.97
2017-05-25T01:10:15.354Z,9.12
2017-05-25T01:12:44.165Z,11.63
2017-05-25T01:15:12.971Z,9.57
2017-05-25T01:17:41.838Z,10.53
2017-05-25T01:20:10.672Z,10.42
2017-05-25T01:22:39.526Z,8.95
2017-05-25T01:25:08.358Z,12.08
2017-05-25T01:27:37.172Z,8.58
2017-05-25T01:30:05.986Z,8.23
2017-05-25T01:32:34.824Z,8.92
2017-05-25T01:35:03.663Z,8.37
2017-05-25T01:37:32.484Z,9.02
2017-05-25T01:40:01.295Z,9.42
2017-05-25T01:42:30.138Z,7.68
2017-05-25T01:44:58.951Z,7.80
2017-05-25T01:47:27.769Z,7.90
2017-05-25T01:49:56.602Z,12.22
2017-05-25T01:52:25.520Z,9.72
2017-05-25T01:54:54.299Z,7.88
2017-05-25T01:57:23.124Z,8.20
2017-05-25T01:59:51.982Z,7.68
2017-05-25T02:02:20.834Z,9.03
2017-05-25T02:04:49.648Z,7.88
2017-05-25T02:07:18.458Z,8.28
2017-05-25T02:09:47.290Z,9.42
2017-05-25T02:12:16.111Z,9.53
2017-05-25T02:14:44.919Z,9.22
2017-05-25T02:17:13.743Z,8.68
2017-05-25T02:19:42.572Z,11.30
2017-05-25T02:22:11.380Z,9.70
2017-05-25T02:24:40.216Z,12.30
2017-05-25T02:27:09.163Z,12.53
2017-05-25T02:29:38.018Z,11.23
2017-05-25T02:32:06.847Z,11.03
2017-05-25T02:34:35.706Z,10.18
2017-05-25T02:37:04.592Z,10.50
2017-05-25T02:39:33.468Z,11.83
2017-05-25T02:42:02.287Z,11.85
2017-05-25T02:44:31.131Z,15.02
2017-05-25T02:47:00.015Z,10.48
2017-05-25T02:49:28.808Z,11.00
2017-05-25T02:51:57.625Z,12.83
2017-05-25T02:54:26.470Z,10.82
2017-05-25T02:56:55.289Z,14.43
2017-05-25T02:59:24.130Z,11.02
2017-05-25T03:01:53.041Z,10.20
2017-05-25T03:04:21.874Z,9.73
2017-05-25T03:06:50.770Z,9.87
2017-05-25T03:09:19.665Z,12.73
2017-05-25T03:11:48.456Z,10.23
2017-05-25T03:14:17.321Z,11.27
2017-05-25T03:16:46.133Z,9.67
2017-05-25T03:19:14.980Z,15.68
2017-05-25T03:21:43.842Z,10.50
2017-05-25T03:24:12.684Z,10.77
2017-05-25T03:26:41.576Z,11.28
2017-05-25T03:29:10.387Z,10.98
2017-05-25T03:31:39.208Z,14.07
2017-05-25T03:34:08.036Z,11.73
2017-05-25T03:36:36.858Z,12.72
2017-05-25T03:39:05.718Z,12.37
2017-05-25T03:41:34.611Z,12.07
2017-05-25T03:44:03.490Z,11.75
2017-05-25T03:46:32.463Z,9.47
2017-05-25T03:49:01.416Z,11.35
2017-05-25T03:51:30.265Z,10.47
2017-05-25T03:53:59.154Z,9.98
2017-05-25T03:56:27.970Z,9.12
2017-05-25T03:58:56.782Z,9.10
2017-05-25T04:01:25.603Z,9.28
2017-05-25T04:03:54.466Z,10.13
2017-05-25T04:06:23.282Z,9.70
2017-05-25T04:08:52.099Z,12.93
2017-05-25T04:11:20.938Z,9.72
2017-05-25T04:13:49.742Z,9.08
2017-05-25T04:16:18.545Z,9.65
2017-05-25T04:18:47.371Z,10.22
2017-05-25T04:21:16.209Z,10.68
2017-05-25T04:23:45.027Z,12.23
2017-05-25T04:26:13.848Z,12.83
2017-05-25T04:28:42.670Z,13.17
2017-05-25T04:31:11.509Z,12.82
2017-05-25T04:33:40.328Z,12.05
2017-05-25T04:36:09.145Z,14.45
2017-05-25T04:38:38.003Z,13.05
2017-05-25T04:41:06.856Z,17.32
2017-05-25T04:43:35.675Z,12.08
2017-05-25T04:46:04.515Z,11.98
2017-05-25T04:48:33.369Z,11.32
2017-05-25T04:51:02.190Z,12.97
2017-05-25T04:53:31.108Z,11.48
2017-05-25T04:55:59.889Z,12.47
2017-05-25T04:58:28.748Z,11.43
2017-05-25T05:00:57.606Z,12.10
2017-05-25T05:03:26.519Z,13.37
2017-05-25T05:05:55.496Z,12.03
2017-05-25T05:08:24.384Z,11.72
2017-05-25T05:10:53.254Z,11.48
2017-05-25T05:13:21.418Z,11.47
2017-05-25T05:15:50.189Z,11.13
2017-05-25T05:18:19.002Z,9.10
2017-05-25T05:20:47.834Z,9.52
2017-05-25T05:23:16.638Z,9.88
2017-05-25T05:25:45.446Z,9.90
2017-05-25T05:28:14.288Z,10.67
2017-05-25T05:30:43.092Z,9.23
2017-05-25T05:33:11.952Z,9.50
2017-05-25T05:35:40.804Z,9.47
2017-05-25T05:38:09.629Z,10.50
2017-05-25T05:40:38.519Z,14.00
2017-05-25T05:43:07.387Z,8.77
2017-05-25T05:45:36.192Z,9.32
2017-05-25T05:48:05.138Z,8.10
2017-05-25T05:50:34.007Z,6.92
2017-05-25T05:53:02.839Z,7.60
2017-05-25T05:55:31.649Z,7.98
2017-05-25T05:58:00.462Z,10.47
2017-05-25T06:00:29.384Z,8.05
2017-05-25T06:02:58.228Z,7.93
2017-05-25T06:05:27.101Z,9.63
2017-05-25T06:07:55.924Z,11.53
2017-05-25T06:10:24.734Z,8.82
2017-05-25T06:12:53.546Z,10.98
2017-05-25T06:15:28.141Z,10.85
2017-05-25T06:17:56.956Z,10.58
2017-05-25T06:20:25.766Z,10.50
2017-05-25T06:22:53.885Z,10.38
2017-05-25T06:25:22.825Z,8.30
2017-05-25T06:27:51.619Z,9.17
2017-05-25T06:30:20.454Z,9.95
2017-05-25T06:32:49.392Z,13.92
2017-05-25T06:35:18.240Z,10.22
2017-05-25T06:37:47.124Z,9.03
2017-05-25T06:40:16.030Z,9.55
2017-05-25T06:42:44.916Z,9.02
2017-05-25T06:45:13.794Z,9.70
2017-05-25T06:47:42.768Z,9.37
2017-05-25T06:50:11.717Z,11.05
2017-05-25T06:52:40.550Z,9.93
2017-05-25T06:55:09.363Z,9.60
2017-05-25T06:57:38.233Z,9.42
2017-05-25T07:00:07.054Z,10.02
2017-05-25T07:02:35.863Z,11.13
2017-05-25T07:05:04.749Z,11.17
2017-05-25T07:07:32.774Z,10.50
2017-05-25T07:10:01.583Z,9.97
2017-05-25T07:12:30.446Z,10.80
2017-05-25T07:14:59.278Z,12.52
2017-05-25T07:17:28.134Z,9.50
2017-05-25T07:19:57.540Z,8.12
2017-05-25T07:22:26.413Z,8.47
2017-05-25T07:24:55.229Z,7.85
2017-05-25T07:27:24.070Z,7.07
2017-05-25T07:29:52.935Z,8.20
2017-05-25T07:32:21.745Z,7.55
2017-05-25T07:34:50.578Z,8.98
2017-05-25T07:37:19.414Z,6.37
2017-05-25T07:39:48.249Z,7.85
2017-05-25T07:42:17.084Z,6.70
2017-05-25T07:44:45.876Z,5.32
2017-05-25T07:47:14.686Z,7.42
2017-05-25T07:49:43.511Z,8.50
2017-05-25T07:52:12.326Z,7.05
2017-05-25T07:54:41.196Z,10.12
2017-05-25T07:57:10.009Z,6.13
2017-05-25T07:59:38.847Z,11.98
2017-05-25T08:02:07.727Z,7.53
2017-05-25T08:04:36.568Z,6.03
2017-05-25T08:07:05.419Z,7.90
2017-05-25T08:09:34.259Z,7.55
2017-05-25T08:12:03.063Z,7.28
2017-05-25T08:14:31.898Z,7.97
2017-05-25T08:17:00.756Z,8.62
2017-05-25T08:19:29.567Z,9.67
2017-05-25T08:21:58.370Z,9.57
2017-05-25T08:24:27.198Z,9.70
2017-05-25T08:26:56.020Z,7.90
2017-05-25T08:29:24.863Z,8.12
2017-05-25T08:31:53.674Z,7.65
2017-05-25T08:34:22.491Z,6.30
2017-05-25T08:36:51.405Z,7.18
2017-05-25T08:39:20.228Z,7.32
2017-05-25T08:44:17.310Z,8.63
2017-05-25T08:46:46.162Z,8.07
2017-05-25T08:49:14.991Z,13.17
2017-05-25T08:51:43.815Z,7.70
2017-05-25T08:54:12.638Z,9.47
2017-05-25T08:56:41.474Z,6.03
2017-05-25T08:59:10.304Z,7.67
2017-05-25T09:01:39.187Z,6.90
2017-05-25T09:04:08.020Z,16.97
2017-05-25T09:06:36.830Z,7.18
2017-05-25T09:09:05.688Z,7.53
2017-05-25T09:11:34.504Z,10.20
2017-05-25T09:14:03.353Z,6.22
2017-05-25T09:16:32.258Z,7.48
2017-05-25T09:19:01.060Z,7.02
2017-05-25T09:21:29.910Z,5.85
2017-05-25T09:23:58.753Z,7.62
2017-05-25T09:26:28.530Z,10.92
2017-05-25T09:28:57.344Z,7.02
2017-05-25T09:31:26.162Z,6.13
2017-05-25T09:33:54.965Z,8.12
2017-05-25T09:36:23.806Z,6.25
2017-05-25T10:06:03.015Z,5.72
2017-05-25T10:18:25.009Z,5.70
2017-05-25T10:23:22.156Z,6.77
2017-05-25T10:25:51.002Z,6.03
2017-05-25T10:28:19.814Z,4.13
2017-05-25T10:30:48.797Z,4.55
2017-05-25T10:33:17.684Z,4.12
2017-05-25T10:40:43.369Z,4.45
2017-05-25T10:43:12.283Z,4.15
2017-05-25T11:02:59.958Z,3.60
2017-05-25T11:05:28.914Z,3.68
2017-05-25T11:07:57.731Z,4.53
2017-05-25T11:10:26.643Z,4.73
2017-05-25T11:12:55.567Z,3.63
2017-05-25T11:15:24.380Z,4.22
2017-05-25T11:17:53.254Z,2.97
2017-05-25T11:20:22.102Z,2.92
2017-05-25T11:22:50.891Z,2.92
2017-05-25T11:25:19.796Z,3.85
2017-05-25T11:27:48.749Z,3.50
2017-05-25T11:30:17.674Z,3.92
2017-05-25T11:32:46.560Z,5.98
2017-05-25T11:35:15.455Z,2.98
2017-05-25T11:37:44.350Z,4.90
2017-05-25T11:40:13.225Z,3.75
2017-05-25T11:47:38.566Z,4.55
2017-05-25T11:52:35.714Z,3.62
2017-05-25T11:55:04.590Z,2.53
2017-05-25T11:57:33.429Z,2.40
2017-05-25T12:00:02.266Z,3.07
2017-05-25T12:02:31.132Z,3.30
2017-05-25T12:04:59.970Z,2.42
2017-05-25T12:07:28.776Z,3.30
2017-05-25T12:09:57.601Z,3.40
2017-05-25T12:12:26.459Z,2.57
2017-05-25T12:14:55.351Z,3.87
2017-05-25T12:17:24.217Z,3.00
2017-05-25T12:19:53.092Z,3.72
2017-05-25T12:22:21.951Z,2.38
2017-05-25T12:24:50.816Z,1.68
2017-05-25T12:27:19.647Z,1.92
2017-05-25T12:29:48.520Z,2.20
2017-05-25T12:32:17.314Z,2.37
2017-05-25T12:34:46.161Z,1.93
2017-05-25T12:37:14.981Z,8.85
2017-05-25T12:47:08.655Z,2.43
2017-05-25T12:49:37.509Z,2.23
2017-05-25T12:52:06.380Z,1.83
2017-05-25T12:54:35.235Z,2.02
2017-05-25T12:57:04.109Z,2.05
2017-05-25T12:59:32.958Z,4.68
2017-05-25T13:02:01.874Z,2.50
2017-05-25T13:04:30.801Z,1.88
2017-05-25T13:06:59.694Z,1.88
2017-05-25T13:09:28.590Z,2.50
2017-05-25T13:11:57.451Z,2.30
2017-05-25T13:14:26.361Z,5.00
2017-05-25T13:16:55.320Z,2.12
2017-05-25T13:19:24.143Z,1.52
2017-05-25T13:21:53.091Z,2.65
2017-05-25T13:24:21.898Z,1.85
2017-05-25T13:26:50.723Z,3.05
2017-05-25T13:29:19.550Z,2.70
2017-05-25T13:31:48.382Z,2.12
2017-05-25T14:03:56.459Z,1.70
2017-05-25T14:13:50.132Z,1.65
2017-05-25T14:16:18.943Z,5.57
2017-05-25T14:18:47.783Z,1.97
2017-05-25T14:21:16.617Z,3.47
2017-05-25T14:23:45.425Z,1.40
2017-05-25T14:26:14.326Z,1.85
2017-05-25T14:28:42.426Z,4.42
2017-05-25T14:31:11.266Z,1.40
2017-05-25T14:33:40.139Z,1.75
2017-05-25T14:36:09.839Z,1.93
2017-05-25T14:38:38.717Z,1.45
2017-05-25T14:41:07.556Z,1.93
2017-05-25T14:43:36.381Z,2.15
2017-05-25T14:46:05.559Z,9.63
2017-05-25T14:48:34.913Z,4.45
2017-05-25T14:51:03.795Z,2.38
2017-05-25T14:53:32.627Z,1.30
2017-05-25T15:00:58.035Z,2.60
2017-05-25T15:03:26.833Z,1.83
2017-05-25T15:10:52.257Z,2.03
2017-05-25T15:13:21.110Z,2.13
2017-05-25T15:15:49.968Z,3.65
2017-05-25T15:18:18.791Z,1.48
2017-05-25T15:20:47.654Z,4.62
2017-05-25T15:30:44.681Z,20.37
2017-05-25T15:43:06.638Z,25.58
2017-05-25T15:50:32.110Z,3.82
2017-05-25T15:53:01.006Z,30.60
2017-05-25T15:55:29.825Z,22.40
2017-05-25T15:57:58.646Z,5.10
2017-05-25T16:00:27.514Z,1.97
2017-05-25T16:02:56.324Z,1.60
2017-05-25T16:05:25.170Z,1.37
2017-05-25T16:07:53.998Z,2.77
2017-05-25T16:10:22.802Z,1.55
2017-05-25T16:12:51.677Z,1.87
2017-05-25T16:15:20.565Z,3.10
2017-05-25T16:17:49.379Z,2.68
2017-05-25T16:20:18.220Z,2.78
2017-05-25T16:22:47.050Z,1.15
2017-05-25T16:25:16.038Z,1.02
2017-05-25T16:27:44.847Z,2.52
2017-05-25T16:30:13.703Z,4.32
2017-05-25T16:32:42.546Z,1.23
2017-05-25T16:35:11.356Z,2.75
2017-05-25T16:37:40.183Z,1.38
2017-05-25T16:40:09.037Z,8.25
2017-05-25T16:42:38.572Z,1.77
2017-05-25T16:45:07.469Z,2.07
2017-05-25T16:47:36.309Z,1.50
2017-05-25T16:50:05.103Z,3.67
2017-05-25T16:52:33.916Z,1.97
2017-05-25T16:55:02.758Z,5.63
2017-05-25T16:57:31.585Z,1.27
2017-05-25T17:00:00.381Z,1.88
2017-05-25T17:02:29.246Z,1.57
2017-05-25T17:04:58.064Z,7.20
2017-05-25T17:07:26.934Z,1.60
2017-05-25T17:09:55.762Z,1.08
2017-05-25T17:12:24.681Z,1.77
2017-05-25T17:14:53.490Z,1.25
2017-05-25T17:17:22.450Z,2.13
2017-05-25T17:19:51.270Z,1.10
2017-05-25T17:22:20.218Z,0.93
2017-05-25T17:24:48.242Z,1.20
2017-05-25T17:27:17.084Z,1.10
2017-05-25T17:29:45.930Z,1.20
2017-05-25T17:32:14.777Z,1.47
2017-05-25T17:34:42.923Z,1.58
2017-05-25T17:37:11.738Z,1.40
2017-05-25T17:39:40.554Z,2.42
2017-05-25T17:42:09.397Z,2.45
2017-05-25T17:44:38.244Z,2.73
2017-05-25T17:47:07.086Z,1.90
2017-05-25T17:49:35.904Z,3.42
2017-05-25T17:52:04.737Z,3.95
2017-05-25T17:54:33.644Z,1.68
2017-05-25T17:57:02.459Z,2.17
2017-05-25T17:59:31.287Z,2.02
2017-05-25T18:02:00.141Z,1.40
2017-05-25T18:04:28.969Z,1.62
2017-05-25T18:06:57.786Z,1.52
2017-05-25T18:09:26.615Z,2.55
2017-05-25T18:11:55.426Z,2.20
2017-05-25T18:14:24.266Z,2.43
2017-05-25T18:16:53.086Z,2.68
2017-05-25T18:19:21.894Z,1.48
2017-05-25T18:21:50.741Z,1.87
2017-05-25T18:24:19.546Z,2.00
2017-05-25T18:26:48.354Z,3.08
2017-05-25T18:29:17.196Z,2.35
2017-05-25T18:31:46.002Z,2.65
2017-05-25T18:34:14.821Z,3.92
2017-05-25T18:36:43.669Z,6.12
2017-05-25T18:39:12.474Z,2.12
2017-05-25T18:41:41.314Z,2.37
2017-05-25T18:44:10.126Z,1.53
2017-05-25T18:46:38.933Z,1.70
2017-05-25T18:49:07.766Z,5.15
2017-05-25T18:51:36.575Z,3.13
2017-05-25T18:54:04.630Z,2.23
2017-05-25T18:56:33.442Z,3.30
2017-05-25T18:59:02.305Z,1.98
2017-05-25T19:01:31.119Z,3.05
2017-05-25T19:03:59.938Z,2.57
2017-05-25T19:06:28.781Z,2.65
2017-05-25T19:08:57.589Z,2.45
2017-05-25T19:11:26.402Z,2.40
2017-05-25T19:13:55.254Z,2.20
2017-05-25T19:16:24.067Z,2.78
2017-05-25T19:18:52.879Z,3.48
2017-05-25T19:21:21.717Z,2.60
2017-05-25T19:23:49.763Z,4.08
2017-05-25T19:26:17.802Z,3.10
2017-05-25T19:28:46.639Z,4.02
2017-05-25T19:31:15.452Z,2.68
2017-05-25T19:33:44.292Z,2.10
2017-05-25T19:36:13.101Z,2.28
2017-05-25T19:38:41.914Z,2.08
2017-05-25T19:41:10.749Z,2.40
2017-05-25T19:43:39.554Z,2.97
2017-05-25T19:46:08.432Z,3.23
2017-05-25T19:48:37.276Z,1.80
2017-05-25T19:51:06.082Z,2.45
2017-05-25T19:53:34.132Z,2.03
2017-05-25T19:56:02.969Z,2.40
2017-05-25T19:58:31.791Z,2.10
2017-05-25T20:01:00.642Z,2.17
2017-05-25T20:03:29.479Z,2.13
2017-05-25T20:05:58.321Z,1.72
2017-05-25T20:08:27.143Z,2.42
2017-05-25T20:10:55.958Z,2.50
2017-05-25T20:13:24.795Z,2.38
2017-05-25T20:15:53.635Z,2.60
2017-05-25T20:18:22.453Z,4.98
2017-05-25T20:20:51.279Z,2.37
2017-05-25T20:23:20.094Z,2.23
2017-05-25T20:25:48.948Z,3.05
2017-05-25T20:28:17.746Z,2.65
2017-05-25T20:30:46.606Z,2.45
2017-05-25T20:33:15.438Z,2.42
2017-05-25T20:35:44.269Z,2.85
2017-05-25T20:38:13.134Z,2.58
2017-05-25T20:40:41.969Z,3.52
2017-05-25T20:43:10.911Z,3.02
2017-05-25T20:45:39.793Z,2.45
2017-05-25T20:48:08.623Z,2.23
2017-05-25T20:50:37.447Z,2.43
2017-05-25T20:53:06.297Z,3.12
2017-05-25T20:55:35.134Z,2.57
2017-05-25T20:58:03.950Z,2.98
2017-05-25T21:00:32.850Z,3.87
2017-05-25T21:03:01.709Z,3.08
2017-05-25T21:05:30.578Z,3.23
2017-05-25T21:07:59.481Z,2.45
2017-05-25T21:10:28.311Z,3.23
2017-05-25T21:12:56.394Z,3.37
2017-05-25T21:15:25.215Z,2.53
2017-05-25T21:17:54.049Z,1.98
2017-05-25T21:20:22.910Z,3.02
2017-05-25T21:22:51.733Z,2.30
2017-05-25T21:25:20.550Z,2.67
2017-05-25T21:27:48.625Z,2.30
2017-05-25T21:30:17.623Z,2.28
2017-05-25T21:32:46.435Z,2.53
2017-05-25T21:35:15.246Z,4.75
2017-05-25T21:37:44.087Z,2.65
2017-05-25T21:40:12.887Z,3.47
2017-05-25T21:42:41.723Z,2.67
2017-05-25T21:45:10.545Z,4.23
2017-05-25T21:47:39.357Z,4.25
2017-05-25T21:50:08.234Z,2.50
2017-05-25T21:52:37.043Z,3.17
2017-05-25T21:55:05.867Z,3.47
2017-05-25T21:57:35.523Z,3.07
2017-05-25T22:00:04.397Z,2.77
2017-05-25T22:02:33.388Z,3.45
2017-05-25T22:05:02.487Z,3.33
2017-05-25T22:07:30.572Z,3.97
2017-05-25T22:09:59.395Z,3.35
2017-05-25T22:12:28.202Z,3.40
2017-05-25T22:14:57.046Z,3.12
2017-05-25T22:17:25.905Z,4.02
2017-05-25T22:19:54.713Z,2.93
2017-05-25T22:22:23.528Z,2.67
2017-05-25T22:24:52.368Z,3.35
2017-05-25T22:27:21.175Z,3.02
2017-05-25T22:29:50.018Z,3.73
2017-05-25T22:32:18.828Z,4.87
2017-05-25T22:34:47.674Z,3.53
2017-05-25T22:37:16.526Z,2.72
2017-05-25T22:39:44.586Z,3.85
2017-05-25T22:42:13.413Z,3.28
2017-05-25T22:44:42.582Z,4.08
2017-05-25T22:47:11.477Z,3.07
2017-05-25T22:49:40.252Z,2.80
2017-05-25T22:52:09.231Z,2.47
2017-05-25T22:54:38.073Z,3.25
2017-05-25T22:57:06.973Z,6.63
2017-05-25T22:59:35.781Z,3.77
2017-05-25T23:02:04.598Z,3.18
2017-05-25T23:04:33.438Z,3.20
2017-05-25T23:07:02.241Z,5.48
2017-05-25T23:09:31.054Z,3.05
2017-05-25T23:11:59.882Z,4.38
2017-05-25T23:14:28.694Z,3.73
2017-05-25T23:16:57.523Z,3.58
2017-05-25T23:19:26.395Z,3.65
2017-05-25T23:21:55.226Z,3.70
2017-05-25T23:24:24.050Z,2.97
2017-05-25T23:26:52.926Z,3.53
2017-05-25T23:29:21.782Z,6.40
2017-05-25T23:31:50.602Z,3.28
2017-05-25T23:34:19.414Z,6.27
2017-05-25T23:36:48.243Z,3.60
2017-05-25T23:39:17.051Z,3.10
2017-05-25T23:41:45.878Z,3.40
2017-05-25T23:44:14.736Z,4.63
2017-05-25T23:46:43.560Z,3.45
2017-05-25T23:49:12.341Z,4.22
2017-05-25T23:51:41.186Z,3.73
2017-05-25T23:54:09.991Z,3.08
2017-05-25T23:56:38.811Z,5.20
2017-05-25T23:59:07.623Z,3.32
